sensor_id;sensor_type;location;lat;lon;timestamp;P1;durP1;ratioP1;P2;durP2;ratioP2
1601;SDS011;794;48.592;9.634;2023-01-08T00:01:15;8.43;;;7.00;;
1601;SDS011;794;48.592;9.634;2023-01-08T00:03:42;6.83;;;5.60;;
1601;SDS011;794;48.592;9.634;2023-01-08T00:06:10;9.10;;;6.60;;
1601;SDS011;794;48.592;9.634;2023-01-08T00:08:39;8.03;;;6.00;;
1601;SDS011;794;48.592;9.634;2023-01-08T00:11:08;8.80;;;5.60;;
1601;SDS011;794;48.592;9.634;2023-01-08T00:13:36;6.80;;;6.17;;
1601;SDS011;794;48.592;9.634;2023-01-08T00:16:03;7.13;;;5.70;;
1601;SDS011;794;48.592;9.634;2023-01-08T00:18:32;8.27;;;6.93;;
1601;SDS011;794;48.592;9.634;2023-01-08T00:20:59;11.33;;;7.23;;
1601;SDS011;794;48.592;9.634;2023-01-08T00:23:27;7.70;;;6.17;;
1601;SDS011;794;48.592;9.634;2023-01-08T00:25:54;8.20;;;6.33;;
1601;SDS011;794;48.592;9.634;2023-01-08T00:28:22;6.93;;;5.90;;
1601;SDS011;794;48.592;9.634;2023-01-08T00:30:49;7.93;;;5.27;;
1601;SDS011;794;48.592;9.634;2023-01-08T00:33:16;6.80;;;6.10;;
1601;SDS011;794;48.592;9.634;2023-01-08T00:35:43;7.53;;;5.80;;
1601;SDS011;794;48.592;9.634;2023-01-08T00:38:10;10.80;;;5.77;;
1601;SDS011;794;48.592;9.634;2023-01-08T00:40:37;6.50;;;5.90;;
1601;SDS011;794;48.592;9.634;2023-01-08T00:43:05;7.10;;;5.80;;
1601;SDS011;794;48.592;9.634;2023-01-08T00:45:34;7.80;;;6.10;;
1601;SDS011;794;48.592;9.634;2023-01-08T00:48:01;7.70;;;5.60;;
1601;SDS011;794;48.592;9.634;2023-01-08T00:50:28;7.83;;;5.17;;
1601;SDS011;794;48.592;9.634;2023-01-08T00:52:55;5.30;;;4.80;;
1601;SDS011;794;48.592;9.634;2023-01-08T00:55:22;7.77;;;5.13;;
1601;SDS011;794;48.592;9.634;2023-01-08T00:57:49;8.40;;;5.87;;
1601;SDS011;794;48.592;9.634;2023-01-08T01:00:15;6.07;;;5.10;;
1601;SDS011;794;48.592;9.634;2023-01-08T01:02:44;7.30;;;5.33;;
1601;SDS011;794;48.592;9.634;2023-01-08T01:05:11;5.50;;;4.97;;
1601;SDS011;794;48.592;9.634;2023-01-08T01:07:41;8.33;;;4.30;;
1601;SDS011;794;48.592;9.634;2023-01-08T01:10:08;6.13;;;5.50;;
1601;SDS011;794;48.592;9.634;2023-01-08T01:12:35;5.47;;;4.93;;
1601;SDS011;794;48.592;9.634;2023-01-08T01:15:04;8.53;;;5.40;;
1601;SDS011;794;48.592;9.634;2023-01-08T01:17:32;7.67;;;5.30;;
1601;SDS011;794;48.592;9.634;2023-01-08T01:20:00;6.13;;;4.60;;
1601;SDS011;794;48.592;9.634;2023-01-08T01:22:27;5.03;;;4.50;;
1601;SDS011;794;48.592;9.634;2023-01-08T01:24:54;7.00;;;4.27;;
1601;SDS011;794;48.592;9.634;2023-01-08T01:27:21;6.03;;;4.23;;
1601;SDS011;794;48.592;9.634;2023-01-08T01:29:48;5.53;;;3.87;;
1601;SDS011;794;48.592;9.634;2023-01-08T01:32:14;4.53;;;4.10;;
1601;SDS011;794;48.592;9.634;2023-01-08T01:34:41;3.80;;;3.50;;
1601;SDS011;794;48.592;9.634;2023-01-08T01:37:10;4.30;;;3.57;;
1601;SDS011;794;48.592;9.634;2023-01-08T01:39:38;6.97;;;4.67;;
1601;SDS011;794;48.592;9.634;2023-01-08T01:42:08;5.10;;;4.40;;
1601;SDS011;794;48.592;9.634;2023-01-08T01:44:58;3.50;;;3.20;;
1601;SDS011;794;48.592;9.634;2023-01-08T01:47:26;5.23;;;4.10;;
1601;SDS011;794;48.592;9.634;2023-01-08T01:49:56;4.50;;;2.90;;
1601;SDS011;794;48.592;9.634;2023-01-08T01:52:29;3.37;;;2.40;;
1601;SDS011;794;48.592;9.634;2023-01-08T01:55:02;4.17;;;3.70;;
1601;SDS011;794;48.592;9.634;2023-01-08T01:57:30;3.60;;;3.10;;
1601;SDS011;794;48.592;9.634;2023-01-08T01:59:59;3.67;;;3.37;;
1601;SDS011;794;48.592;9.634;2023-01-08T02:02:29;5.60;;;3.57;;
1601;SDS011;794;48.592;9.634;2023-01-08T02:04:56;3.73;;;3.30;;
1601;SDS011;794;48.592;9.634;2023-01-08T02:07:26;3.80;;;3.30;;
1601;SDS011;794;48.592;9.634;2023-01-08T02:10:03;4.50;;;3.00;;
1601;SDS011;794;48.592;9.634;2023-01-08T02:12:36;5.40;;;3.50;;
1601;SDS011;794;48.592;9.634;2023-01-08T02:15:09;3.60;;;2.97;;
1601;SDS011;794;48.592;9.634;2023-01-08T02:17:43;4.03;;;3.50;;
1601;SDS011;794;48.592;9.634;2023-01-08T02:20:14;4.67;;;4.00;;
1601;SDS011;794;48.592;9.634;2023-01-08T02:22:50;4.77;;;3.93;;
1601;SDS011;794;48.592;9.634;2023-01-08T02:28:35;4.20;;;3.80;;
1601;SDS011;794;48.592;9.634;2023-01-08T02:31:06;4.20;;;3.83;;
1601;SDS011;794;48.592;9.634;2023-01-08T02:33:33;4.60;;;3.53;;
1601;SDS011;794;48.592;9.634;2023-01-08T02:36:20;4.23;;;3.93;;
1601;SDS011;794;48.592;9.634;2023-01-08T02:39:09;4.53;;;3.80;;
1601;SDS011;794;48.592;9.634;2023-01-08T02:41:50;9.00;;;4.30;;
1601;SDS011;794;48.592;9.634;2023-01-08T02:44:27;3.80;;;3.50;;
1601;SDS011;794;48.592;9.634;2023-01-08T02:47:03;4.63;;;3.77;;
1601;SDS011;794;48.592;9.634;2023-01-08T02:49:34;5.50;;;3.83;;
1601;SDS011;794;48.592;9.634;2023-01-08T02:52:04;9.73;;;3.40;;
1601;SDS011;794;48.592;9.634;2023-01-08T02:54:33;3.27;;;2.90;;
1601;SDS011;794;48.592;9.634;2023-01-08T02:57:04;3.60;;;3.30;;
1601;SDS011;794;48.592;9.634;2023-01-08T02:59:35;2.80;;;2.60;;
1601;SDS011;794;48.592;9.634;2023-01-08T03:02:03;3.70;;;3.17;;
1601;SDS011;794;48.592;9.634;2023-01-08T03:04:33;3.47;;;3.27;;
1601;SDS011;794;48.592;9.634;2023-01-08T03:07:03;6.13;;;3.43;;
1601;SDS011;794;48.592;9.634;2023-01-08T03:09:29;3.73;;;3.43;;
1601;SDS011;794;48.592;9.634;2023-01-08T03:11:58;4.17;;;3.77;;
1601;SDS011;794;48.592;9.634;2023-01-08T03:14:31;3.63;;;3.20;;
1601;SDS011;794;48.592;9.634;2023-01-08T03:17:05;2.87;;;2.67;;
1601;SDS011;794;48.592;9.634;2023-01-08T03:19:39;2.73;;;2.53;;
1601;SDS011;794;48.592;9.634;2023-01-08T03:22:10;7.30;;;2.97;;
1601;SDS011;794;48.592;9.634;2023-01-08T03:24:40;3.07;;;2.73;;
1601;SDS011;794;48.592;9.634;2023-01-08T03:27:11;3.07;;;2.57;;
1601;SDS011;794;48.592;9.634;2023-01-08T03:29:43;4.63;;;3.13;;
1601;SDS011;794;48.592;9.634;2023-01-08T03:32:13;3.40;;;3.10;;
1601;SDS011;794;48.592;9.634;2023-01-08T03:34:42;4.87;;;3.60;;
1601;SDS011;794;48.592;9.634;2023-01-08T03:37:11;3.87;;;2.87;;
1601;SDS011;794;48.592;9.634;2023-01-08T03:39:41;3.83;;;3.40;;
1601;SDS011;794;48.592;9.634;2023-01-08T03:42:10;2.70;;;2.50;;
1601;SDS011;794;48.592;9.634;2023-01-08T03:44:40;3.87;;;3.57;;
1601;SDS011;794;48.592;9.634;2023-01-08T03:47:08;3.40;;;3.10;;
1601;SDS011;794;48.592;9.634;2023-01-08T03:49:37;4.30;;;3.10;;
1601;SDS011;794;48.592;9.634;2023-01-08T03:52:06;3.20;;;2.90;;
1601;SDS011;794;48.592;9.634;2023-01-08T03:54:34;5.80;;;2.60;;
1601;SDS011;794;48.592;9.634;2023-01-08T03:57:02;3.30;;;3.00;;
1601;SDS011;794;48.592;9.634;2023-01-08T03:59:28;3.57;;;3.23;;
1601;SDS011;794;48.592;9.634;2023-01-08T04:01:55;3.70;;;3.37;;
1601;SDS011;794;48.592;9.634;2023-01-08T04:04:24;3.10;;;2.80;;
1601;SDS011;794;48.592;9.634;2023-01-08T04:06:51;3.17;;;2.73;;
1601;SDS011;794;48.592;9.634;2023-01-08T04:09:18;3.40;;;3.10;;
1601;SDS011;794;48.592;9.634;2023-01-08T04:11:45;3.77;;;3.47;;
1601;SDS011;794;48.592;9.634;2023-01-08T04:14:12;5.80;;;3.00;;
1601;SDS011;794;48.592;9.634;2023-01-08T04:16:39;7.10;;;3.40;;
1601;SDS011;794;48.592;9.634;2023-01-08T04:19:05;4.03;;;2.40;;
1601;SDS011;794;48.592;9.634;2023-01-08T04:21:34;3.07;;;2.77;;
1601;SDS011;794;48.592;9.634;2023-01-08T04:24:01;3.03;;;2.83;;
1601;SDS011;794;48.592;9.634;2023-01-08T04:26:27;3.53;;;3.23;;
1601;SDS011;794;48.592;9.634;2023-01-08T04:28:54;3.27;;;2.97;;
1601;SDS011;794;48.592;9.634;2023-01-08T04:31:21;3.33;;;2.33;;
1601;SDS011;794;48.592;9.634;2023-01-08T04:33:48;3.50;;;3.20;;
1601;SDS011;794;48.592;9.634;2023-01-08T04:36:15;3.30;;;3.00;;
1601;SDS011;794;48.592;9.634;2023-01-08T04:38:43;4.43;;;2.60;;
1601;SDS011;794;48.592;9.634;2023-01-08T04:41:10;2.97;;;2.67;;
1601;SDS011;794;48.592;9.634;2023-01-08T04:43:37;3.53;;;2.57;;
1601;SDS011;794;48.592;9.634;2023-01-08T04:46:04;3.30;;;2.67;;
1601;SDS011;794;48.592;9.634;2023-01-08T04:48:32;3.47;;;2.80;;
1601;SDS011;794;48.592;9.634;2023-01-08T04:50:59;8.93;;;3.40;;
1601;SDS011;794;48.592;9.634;2023-01-08T04:53:28;3.07;;;2.77;;
1601;SDS011;794;48.592;9.634;2023-01-08T04:55:57;3.20;;;3.00;;
1601;SDS011;794;48.592;9.634;2023-01-08T04:58:28;3.83;;;2.80;;
1601;SDS011;794;48.592;9.634;2023-01-08T05:00:55;3.60;;;2.77;;
1601;SDS011;794;48.592;9.634;2023-01-08T05:03:22;3.37;;;3.07;;
1601;SDS011;794;48.592;9.634;2023-01-08T05:05:51;3.00;;;2.67;;
1601;SDS011;794;48.592;9.634;2023-01-08T05:08:18;3.90;;;3.40;;
1601;SDS011;794;48.592;9.634;2023-01-08T05:10:45;4.70;;;3.27;;
1601;SDS011;794;48.592;9.634;2023-01-08T05:13:14;3.33;;;2.43;;
1601;SDS011;794;48.592;9.634;2023-01-08T05:15:41;3.60;;;3.30;;
1601;SDS011;794;48.592;9.634;2023-01-08T05:18:08;3.40;;;3.10;;
1601;SDS011;794;48.592;9.634;2023-01-08T05:20:35;6.90;;;2.93;;
1601;SDS011;794;48.592;9.634;2023-01-08T05:23:02;6.10;;;2.77;;
1601;SDS011;794;48.592;9.634;2023-01-08T05:25:41;4.63;;;3.83;;
1601;SDS011;794;48.592;9.634;2023-01-08T05:28:08;7.47;;;5.40;;
1601;SDS011;794;48.592;9.634;2023-01-08T05:30:36;6.90;;;4.63;;
1601;SDS011;794;48.592;9.634;2023-01-08T05:33:03;5.57;;;4.70;;
1601;SDS011;794;48.592;9.634;2023-01-08T05:35:30;7.70;;;4.70;;
1601;SDS011;794;48.592;9.634;2023-01-08T05:37:58;5.63;;;4.77;;
1601;SDS011;794;48.592;9.634;2023-01-08T05:40:25;5.67;;;4.30;;
1601;SDS011;794;48.592;9.634;2023-01-08T05:42:52;4.93;;;4.07;;
1601;SDS011;794;48.592;9.634;2023-01-08T05:45:19;4.87;;;4.27;;
1601;SDS011;794;48.592;9.634;2023-01-08T05:47:47;5.30;;;4.00;;
1601;SDS011;794;48.592;9.634;2023-01-08T05:50:14;9.47;;;6.63;;
1601;SDS011;794;48.592;9.634;2023-01-08T05:52:41;5.40;;;4.57;;
1601;SDS011;794;48.592;9.634;2023-01-08T05:55:08;4.63;;;4.00;;
1601;SDS011;794;48.592;9.634;2023-01-08T05:57:35;4.30;;;3.90;;
1601;SDS011;794;48.592;9.634;2023-01-08T06:00:03;6.10;;;5.00;;
1601;SDS011;794;48.592;9.634;2023-01-08T06:02:32;7.50;;;5.07;;
1601;SDS011;794;48.592;9.634;2023-01-08T06:05:02;6.67;;;4.87;;
1601;SDS011;794;48.592;9.634;2023-01-08T06:07:29;5.40;;;4.47;;
1601;SDS011;794;48.592;9.634;2023-01-08T06:09:56;4.47;;;4.07;;
1601;SDS011;794;48.592;9.634;2023-01-08T06:12:23;5.00;;;4.20;;
1601;SDS011;794;48.592;9.634;2023-01-08T06:14:50;6.23;;;4.97;;
1601;SDS011;794;48.592;9.634;2023-01-08T06:17:17;5.70;;;3.67;;
1601;SDS011;794;48.592;9.634;2023-01-08T06:19:44;4.07;;;3.67;;
1601;SDS011;794;48.592;9.634;2023-01-08T06:22:13;6.73;;;4.20;;
1601;SDS011;794;48.592;9.634;2023-01-08T06:24:43;5.97;;;4.57;;
1601;SDS011;794;48.592;9.634;2023-01-08T06:27:10;6.43;;;4.00;;
1601;SDS011;794;48.592;9.634;2023-01-08T06:29:37;5.23;;;4.73;;
1601;SDS011;794;48.592;9.634;2023-01-08T06:32:04;12.77;;;10.67;;
1601;SDS011;794;48.592;9.634;2023-01-08T06:34:31;21.47;;;13.03;;
1601;SDS011;794;48.592;9.634;2023-01-08T06:36:58;19.13;;;14.57;;
1601;SDS011;794;48.592;9.634;2023-01-08T06:39:26;18.70;;;13.50;;
1601;SDS011;794;48.592;9.634;2023-01-08T06:41:53;14.17;;;10.77;;
1601;SDS011;794;48.592;9.634;2023-01-08T06:44:20;12.40;;;9.70;;
1601;SDS011;794;48.592;9.634;2023-01-08T06:46:47;12.37;;;8.37;;
1601;SDS011;794;48.592;9.634;2023-01-08T06:49:14;6.70;;;5.30;;
1601;SDS011;794;48.592;9.634;2023-01-08T06:51:41;10.93;;;5.80;;
1601;SDS011;794;48.592;9.634;2023-01-08T06:54:08;6.13;;;5.27;;
1601;SDS011;794;48.592;9.634;2023-01-08T06:56:37;7.13;;;6.30;;
1601;SDS011;794;48.592;9.634;2023-01-08T06:59:04;8.53;;;6.90;;
1601;SDS011;794;48.592;9.634;2023-01-08T07:01:33;8.97;;;6.43;;
1601;SDS011;794;48.592;9.634;2023-01-08T07:04:00;8.17;;;4.97;;
1601;SDS011;794;48.592;9.634;2023-01-08T07:06:27;5.77;;;5.27;;
1601;SDS011;794;48.592;9.634;2023-01-08T07:08:54;4.93;;;4.10;;
1601;SDS011;794;48.592;9.634;2023-01-08T07:11:21;6.67;;;4.67;;
1601;SDS011;794;48.592;9.634;2023-01-08T07:13:50;2.08;;;1.88;;
1601;SDS011;794;48.592;9.634;2023-01-08T07:16:17;2.37;;;1.90;;
1601;SDS011;794;48.592;9.634;2023-01-08T07:18:46;1.80;;;1.70;;
1601;SDS011;794;48.592;9.634;2023-01-08T07:21:13;3.07;;;1.80;;
1601;SDS011;794;48.592;9.634;2023-01-08T07:23:40;2.10;;;1.90;;
1601;SDS011;794;48.592;9.634;2023-01-08T07:26:11;2.50;;;1.80;;
1601;SDS011;794;48.592;9.634;2023-01-08T07:28:38;2.20;;;2.00;;
1601;SDS011;794;48.592;9.634;2023-01-08T07:31:06;2.20;;;2.00;;
1601;SDS011;794;48.592;9.634;2023-01-08T07:33:34;2.40;;;1.90;;
1601;SDS011;794;48.592;9.634;2023-01-08T07:36:01;1.60;;;1.50;;
1601;SDS011;794;48.592;9.634;2023-01-08T07:38:29;1.80;;;1.27;;
1601;SDS011;794;48.592;9.634;2023-01-08T07:41:02;1.20;;;1.10;;
1601;SDS011;794;48.592;9.634;2023-01-08T07:43:30;0.97;;;0.70;;
1601;SDS011;794;48.592;9.634;2023-01-08T07:45:57;3.37;;;1.70;;
1601;SDS011;794;48.592;9.634;2023-01-08T07:48:30;1.80;;;1.30;;
1601;SDS011;794;48.592;9.634;2023-01-08T07:51:00;1.93;;;1.40;;
1601;SDS011;794;48.592;9.634;2023-01-08T07:53:27;1.00;;;1.00;;
1601;SDS011;794;48.592;9.634;2023-01-08T07:55:58;1.73;;;1.27;;
1601;SDS011;794;48.592;9.634;2023-01-08T07:58:38;1.10;;;1.10;;
1601;SDS011;794;48.592;9.634;2023-01-08T08:01:09;2.50;;;1.60;;
1601;SDS011;794;48.592;9.634;2023-01-08T08:03:45;1.37;;;1.27;;
1601;SDS011;794;48.592;9.634;2023-01-08T08:06:17;3.80;;;2.17;;
1601;SDS011;794;48.592;9.634;2023-01-08T08:08:49;2.13;;;1.97;;
1601;SDS011;794;48.592;9.634;2023-01-08T08:11:24;2.73;;;2.53;;
1601;SDS011;794;48.592;9.634;2023-01-08T08:13:53;4.50;;;4.20;;
1601;SDS011;794;48.592;9.634;2023-01-08T08:16:28;26.17;;;23.57;;
1601;SDS011;794;48.592;9.634;2023-01-08T08:18:58;1.50;;;1.40;;
1601;SDS011;794;48.592;9.634;2023-01-08T08:21:45;1.47;;;1.37;;
1601;SDS011;794;48.592;9.634;2023-01-08T08:24:14;1.30;;;1.20;;
1601;SDS011;794;48.592;9.634;2023-01-08T08:27:02;1.40;;;1.00;;
1601;SDS011;794;48.592;9.634;2023-01-08T08:29:30;4.27;;;1.63;;
1601;SDS011;794;48.592;9.634;2023-01-08T08:32:11;1.53;;;1.37;;
1601;SDS011;794;48.592;9.634;2023-01-08T08:35:02;1.40;;;1.30;;
1601;SDS011;794;48.592;9.634;2023-01-08T08:37:32;3.17;;;1.80;;
1601;SDS011;794;48.592;9.634;2023-01-08T08:40:05;2.10;;;1.70;;
1601;SDS011;794;48.592;9.634;2023-01-08T08:42:35;1.70;;;1.10;;
1601;SDS011;794;48.592;9.634;2023-01-08T08:45:04;2.50;;;1.40;;
1601;SDS011;794;48.592;9.634;2023-01-08T08:47:32;1.77;;;1.67;;
1601;SDS011;794;48.592;9.634;2023-01-08T08:50:03;2.33;;;2.13;;
1601;SDS011;794;48.592;9.634;2023-01-08T08:52:32;4.80;;;2.70;;
1601;SDS011;794;48.592;9.634;2023-01-08T08:55:01;3.40;;;2.80;;
1601;SDS011;794;48.592;9.634;2023-01-08T08:57:31;4.73;;;2.57;;
1601;SDS011;794;48.592;9.634;2023-01-08T08:59:58;3.40;;;3.03;;
1601;SDS011;794;48.592;9.634;2023-01-08T09:05:09;3.00;;;2.80;;
1601;SDS011;794;48.592;9.634;2023-01-08T09:07:39;3.57;;;3.27;;
1601;SDS011;794;48.592;9.634;2023-01-08T09:10:09;6.20;;;2.33;;
1601;SDS011;794;48.592;9.634;2023-01-08T09:12:38;4.57;;;3.13;;
1601;SDS011;794;48.592;9.634;2023-01-08T09:15:06;2.53;;;2.33;;
1601;SDS011;794;48.592;9.634;2023-01-08T09:17:36;2.87;;;1.60;;
1601;SDS011;794;48.592;9.634;2023-01-08T09:20:06;2.07;;;1.93;;
1601;SDS011;794;48.592;9.634;2023-01-08T09:22:41;1.80;;;1.70;;
1601;SDS011;794;48.592;9.634;2023-01-08T09:25:10;2.73;;;1.50;;
1601;SDS011;794;48.592;9.634;2023-01-08T09:27:38;7.07;;;5.23;;
1601;SDS011;794;48.592;9.634;2023-01-08T09:30:06;1.67;;;1.30;;
1601;SDS011;794;48.592;9.634;2023-01-08T09:32:58;4.53;;;2.73;;
1601;SDS011;794;48.592;9.634;2023-01-08T09:35:32;1.67;;;1.43;;
1601;SDS011;794;48.592;9.634;2023-01-08T09:37:59;1.10;;;1.10;;
1601;SDS011;794;48.592;9.634;2023-01-08T09:40:29;1.40;;;1.03;;
1601;SDS011;794;48.592;9.634;2023-01-08T09:43:00;0.73;;;0.73;;
1601;SDS011;794;48.592;9.634;2023-01-08T09:45:41;1.57;;;0.87;;
1601;SDS011;794;48.592;9.634;2023-01-08T09:49:31;0.90;;;0.90;;
1601;SDS011;794;48.592;9.634;2023-01-08T10:08:27;1.10;;;1.00;;
1601;SDS011;794;48.592;9.634;2023-01-08T10:11:06;2.77;;;1.30;;
1601;SDS011;794;48.592;9.634;2023-01-08T10:14:01;3.77;;;1.37;;
1601;SDS011;794;48.592;9.634;2023-01-08T10:16:48;1.00;;;0.93;;
1601;SDS011;794;48.592;9.634;2023-01-08T10:19:39;1.43;;;0.90;;
1601;SDS011;794;48.592;9.634;2023-01-08T10:22:12;4.17;;;3.77;;
1601;SDS011;794;48.592;9.634;2023-01-08T10:24:52;0.97;;;0.80;;
1601;SDS011;794;48.592;9.634;2023-01-08T10:27:45;0.90;;;0.90;;
1601;SDS011;794;48.592;9.634;2023-01-08T10:30:20;1.50;;;1.40;;
1601;SDS011;794;48.592;9.634;2023-01-08T10:33:02;1.30;;;1.20;;
1601;SDS011;794;48.592;9.634;2023-01-08T10:35:37;0.90;;;0.90;;
1601;SDS011;794;48.592;9.634;2023-01-08T10:38:29;2.03;;;0.80;;
1601;SDS011;794;48.592;9.634;2023-01-08T10:41:02;2.50;;;2.30;;
1601;SDS011;794;48.592;9.634;2023-01-08T10:43:46;0.80;;;0.80;;
1601;SDS011;794;48.592;9.634;2023-01-08T10:46:20;1.53;;;0.90;;
1601;SDS011;794;48.592;9.634;2023-01-08T10:48:50;0.90;;;0.80;;
1601;SDS011;794;48.592;9.634;2023-01-08T10:51:24;2.93;;;0.90;;
1601;SDS011;794;48.592;9.634;2023-01-08T10:53:55;0.90;;;0.90;;
1601;SDS011;794;48.592;9.634;2023-01-08T10:56:47;1.30;;;0.90;;
1601;SDS011;794;48.592;9.634;2023-01-08T10:59:20;1.30;;;1.20;;
1601;SDS011;794;48.592;9.634;2023-01-08T11:01:49;1.47;;;1.00;;
1601;SDS011;794;48.592;9.634;2023-01-08T11:04:19;3.33;;;1.20;;
1601;SDS011;794;48.592;9.634;2023-01-08T11:06:50;3.50;;;1.00;;
1601;SDS011;794;48.592;9.634;2023-01-08T11:09:25;0.80;;;0.80;;
1601;SDS011;794;48.592;9.634;2023-01-08T11:11:55;0.80;;;0.70;;
1601;SDS011;794;48.592;9.634;2023-01-08T11:14:30;2.40;;;1.10;;
1601;SDS011;794;48.592;9.634;2023-01-08T11:17:14;0.83;;;0.70;;
1601;SDS011;794;48.592;9.634;2023-01-08T11:19:42;0.70;;;0.70;;
1601;SDS011;794;48.592;9.634;2023-01-08T11:22:18;1.30;;;1.20;;
1601;SDS011;794;48.592;9.634;2023-01-08T11:24:48;1.00;;;0.90;;
1601;SDS011;794;48.592;9.634;2023-01-08T11:27:17;1.40;;;0.90;;
1601;SDS011;794;48.592;9.634;2023-01-08T11:30:04;5.00;;;1.00;;
1601;SDS011;794;48.592;9.634;2023-01-08T11:32:39;0.80;;;0.70;;
1601;SDS011;794;48.592;9.634;2023-01-08T11:35:14;1.07;;;0.90;;
1601;SDS011;794;48.592;9.634;2023-01-08T11:37:48;1.23;;;1.00;;
1601;SDS011;794;48.592;9.634;2023-01-08T11:40:24;0.90;;;0.70;;
1601;SDS011;794;48.592;9.634;2023-01-08T11:43:06;0.93;;;0.90;;
1601;SDS011;794;48.592;9.634;2023-01-08T11:45:52;0.70;;;0.70;;
1601;SDS011;794;48.592;9.634;2023-01-08T11:51:35;0.90;;;0.90;;
1601;SDS011;794;48.592;9.634;2023-01-08T11:54:21;1.00;;;0.90;;
1601;SDS011;794;48.592;9.634;2023-01-08T11:57:07;0.80;;;0.80;;
1601;SDS011;794;48.592;9.634;2023-01-08T11:59:56;0.83;;;0.83;;
1601;SDS011;794;48.592;9.634;2023-01-08T12:02:45;18.17;;;10.17;;
1601;SDS011;794;48.592;9.634;2023-01-08T12:05:22;12.53;;;6.47;;
1601;SDS011;794;48.592;9.634;2023-01-08T12:07:56;1.60;;;1.50;;
1601;SDS011;794;48.592;9.634;2023-01-08T12:10:34;9.20;;;6.07;;
1601;SDS011;794;48.592;9.634;2023-01-08T12:13:27;6.50;;;4.30;;
1601;SDS011;794;48.592;9.634;2023-01-08T12:16:16;4.37;;;3.20;;
1601;SDS011;794;48.592;9.634;2023-01-08T12:19:00;2.47;;;2.00;;
1601;SDS011;794;48.592;9.634;2023-01-08T12:21:43;1.40;;;1.30;;
1601;SDS011;794;48.592;9.634;2023-01-08T12:24:32;0.90;;;0.80;;
1601;SDS011;794;48.592;9.634;2023-01-08T12:30:47;1.50;;;1.40;;
1601;SDS011;794;48.592;9.634;2023-01-08T12:33:31;5.13;;;4.73;;
1601;SDS011;794;48.592;9.634;2023-01-08T12:36:09;0.90;;;0.90;;
1601;SDS011;794;48.592;9.634;2023-01-08T12:38:40;8.50;;;5.23;;
1601;SDS011;794;48.592;9.634;2023-01-08T12:41:11;1.83;;;1.57;;
1601;SDS011;794;48.592;9.634;2023-01-08T12:43:44;2.87;;;1.60;;
1601;SDS011;794;48.592;9.634;2023-01-08T12:46:18;1.30;;;1.20;;
1601;SDS011;794;48.592;9.634;2023-01-08T12:48:51;2.00;;;1.20;;
1601;SDS011;794;48.592;9.634;2023-01-08T12:51:25;1.10;;;0.73;;
1601;SDS011;794;48.592;9.634;2023-01-08T12:54:51;1.47;;;1.40;;
1601;SDS011;794;48.592;9.634;2023-01-08T12:57:13;1.27;;;1.17;;
1601;SDS011;794;48.592;9.634;2023-01-08T12:59:55;2.20;;;2.00;;
1601;SDS011;794;48.592;9.634;2023-01-08T13:02:37;1.40;;;1.30;;
1601;SDS011;794;48.592;9.634;2023-01-08T13:08:30;5.50;;;4.27;;
1601;SDS011;794;48.592;9.634;2023-01-08T13:11:07;1.60;;;1.00;;
1601;SDS011;794;48.592;9.634;2023-01-08T13:13:38;1.50;;;1.40;;
1601;SDS011;794;48.592;9.634;2023-01-08T13:16:27;3.00;;;2.27;;
1601;SDS011;794;48.592;9.634;2023-01-08T13:19:04;1.10;;;1.00;;
1601;SDS011;794;48.592;9.634;2023-01-08T13:21:35;1.40;;;1.07;;
1601;SDS011;794;48.592;9.634;2023-01-08T13:24:25;1.37;;;1.00;;
1601;SDS011;794;48.592;9.634;2023-01-08T13:26:56;1.53;;;0.83;;
1601;SDS011;794;48.592;9.634;2023-01-08T13:29:36;1.53;;;0.90;;
1601;SDS011;794;48.592;9.634;2023-01-08T13:32:35;0.90;;;0.90;;
1601;SDS011;794;48.592;9.634;2023-01-08T13:35:17;0.93;;;0.70;;
1601;SDS011;794;48.592;9.634;2023-01-08T13:37:48;0.70;;;0.70;;
1601;SDS011;794;48.592;9.634;2023-01-08T13:43:21;0.80;;;0.80;;
1601;SDS011;794;48.592;9.634;2023-01-08T13:46:06;2.33;;;1.00;;
1601;SDS011;794;48.592;9.634;2023-01-08T13:48:47;1.57;;;1.47;;
1601;SDS011;794;48.592;9.634;2023-01-08T13:51:23;1.40;;;1.30;;
1601;SDS011;794;48.592;9.634;2023-01-08T13:53:58;2.00;;;1.00;;
1601;SDS011;794;48.592;9.634;2023-01-08T13:56:35;1.23;;;1.13;;
1601;SDS011;794;48.592;9.634;2023-01-08T13:59:03;1.70;;;1.60;;
1601;SDS011;794;48.592;9.634;2023-01-08T14:01:51;1.67;;;1.30;;
1601;SDS011;794;48.592;9.634;2023-01-08T14:04:26;1.67;;;1.30;;
1601;SDS011;794;48.592;9.634;2023-01-08T14:07:06;1.37;;;1.13;;
1601;SDS011;794;48.592;9.634;2023-01-08T14:09:43;1.67;;;1.57;;
1601;SDS011;794;48.592;9.634;2023-01-08T14:12:13;0.80;;;0.80;;
1601;SDS011;794;48.592;9.634;2023-01-08T14:14:50;0.90;;;0.90;;
1601;SDS011;794;48.592;9.634;2023-01-08T14:17:41;1.80;;;1.07;;
1601;SDS011;794;48.592;9.634;2023-01-08T14:20:25;1.00;;;0.90;;
1601;SDS011;794;48.592;9.634;2023-01-08T14:22:56;1.17;;;0.97;;
1601;SDS011;794;48.592;9.634;2023-01-08T14:25:27;1.40;;;0.70;;
1601;SDS011;794;48.592;9.634;2023-01-08T14:28:00;0.90;;;0.80;;
1601;SDS011;794;48.592;9.634;2023-01-08T14:30:31;1.00;;;0.90;;
1601;SDS011;794;48.592;9.634;2023-01-08T14:33:02;0.80;;;0.80;;
1601;SDS011;794;48.592;9.634;2023-01-08T14:35:32;2.50;;;1.50;;
1601;SDS011;794;48.592;9.634;2023-01-08T14:38:11;1.63;;;1.43;;
1601;SDS011;794;48.592;9.634;2023-01-08T14:40:43;3.30;;;3.00;;
1601;SDS011;794;48.592;9.634;2023-01-08T14:43:17;4.93;;;3.50;;
1601;SDS011;794;48.592;9.634;2023-01-08T14:45:50;6.80;;;5.40;;
1601;SDS011;794;48.592;9.634;2023-01-08T14:48:24;5.17;;;2.73;;
1601;SDS011;794;48.592;9.634;2023-01-08T14:51:08;2.70;;;2.43;;
1601;SDS011;794;48.592;9.634;2023-01-08T14:53:40;3.27;;;2.93;;
1601;SDS011;794;48.592;9.634;2023-01-08T14:56:12;3.60;;;2.50;;
1601;SDS011;794;48.592;9.634;2023-01-08T14:58:48;1.67;;;1.57;;
1601;SDS011;794;48.592;9.634;2023-01-08T15:01:17;2.27;;;0.83;;
1601;SDS011;794;48.592;9.634;2023-01-08T15:03:47;1.10;;;1.00;;
1601;SDS011;794;48.592;9.634;2023-01-08T15:06:24;0.90;;;0.70;;
1601;SDS011;794;48.592;9.634;2023-01-08T15:08:55;2.30;;;1.17;;
1601;SDS011;794;48.592;9.634;2023-01-08T15:11:23;2.40;;;2.20;;
1601;SDS011;794;48.592;9.634;2023-01-08T15:13:53;1.23;;;1.00;;
1601;SDS011;794;48.592;9.634;2023-01-08T15:16:23;2.57;;;2.00;;
1601;SDS011;794;48.592;9.634;2023-01-08T15:18:59;1.40;;;1.30;;
1601;SDS011;794;48.592;9.634;2023-01-08T15:21:33;0.90;;;0.70;;
1601;SDS011;794;48.592;9.634;2023-01-08T15:24:01;1.07;;;0.97;;
1601;SDS011;794;48.592;9.634;2023-01-08T15:26:39;1.30;;;1.20;;
1601;SDS011;794;48.592;9.634;2023-01-08T15:29:12;2.10;;;1.50;;
1601;SDS011;794;48.592;9.634;2023-01-08T15:31:50;0.87;;;0.87;;
1601;SDS011;794;48.592;9.634;2023-01-08T15:34:18;0.70;;;0.70;;
1601;SDS011;794;48.592;9.634;2023-01-08T15:36:54;3.13;;;1.10;;
1601;SDS011;794;48.592;9.634;2023-01-08T15:39:21;0.97;;;0.90;;
1601;SDS011;794;48.592;9.634;2023-01-08T15:41:48;1.50;;;1.35;;
1601;SDS011;794;48.592;9.634;2023-01-08T15:44:34;1.10;;;1.00;;
1601;SDS011;794;48.592;9.634;2023-01-08T15:47:01;0.60;;;0.60;;
1601;SDS011;794;48.592;9.634;2023-01-08T15:49:28;1.00;;;1.00;;
1601;SDS011;794;48.592;9.634;2023-01-08T15:51:55;2.47;;;1.90;;
1601;SDS011;794;48.592;9.634;2023-01-08T15:54:23;2.50;;;1.90;;
1601;SDS011;794;48.592;9.634;2023-01-08T15:56:51;4.13;;;1.20;;
1601;SDS011;794;48.592;9.634;2023-01-08T15:59:18;1.30;;;1.20;;
1601;SDS011;794;48.592;9.634;2023-01-08T16:01:46;1.10;;;1.00;;
1601;SDS011;794;48.592;9.634;2023-01-08T16:04:13;1.40;;;0.80;;
1601;SDS011;794;48.592;9.634;2023-01-08T16:06:40;1.30;;;1.20;;
1601;SDS011;794;48.592;9.634;2023-01-08T16:09:07;1.17;;;1.00;;
1601;SDS011;794;48.592;9.634;2023-01-08T16:11:34;1.53;;;1.03;;
1601;SDS011;794;48.592;9.634;2023-01-08T16:14:00;1.30;;;1.20;;
1601;SDS011;794;48.592;9.634;2023-01-08T16:16:27;3.77;;;1.50;;
1601;SDS011;794;48.592;9.634;2023-01-08T16:18:56;1.30;;;1.20;;
1601;SDS011;794;48.592;9.634;2023-01-08T16:21:24;1.60;;;1.50;;
1601;SDS011;794;48.592;9.634;2023-01-08T16:23:51;1.50;;;1.40;;
1601;SDS011;794;48.592;9.634;2023-01-08T16:26:18;2.03;;;1.50;;
1601;SDS011;794;48.592;9.634;2023-01-08T16:28:45;2.43;;;1.60;;
1601;SDS011;794;48.592;9.634;2023-01-08T16:31:12;2.00;;;1.80;;
1601;SDS011;794;48.592;9.634;2023-01-08T16:33:39;1.70;;;1.60;;
1601;SDS011;794;48.592;9.634;2023-01-08T16:36:08;1.47;;;1.37;;